sensor_id;sensor_type;location;lat;lon;timestamp;temperature;humidity
7325;DHT22;3703;48.016;7.802;2022-07-23T00:00:44;26.30;99.90
7325;DHT22;3703;48.016;7.802;2022-07-23T00:03:33;26.20;99.90
7325;DHT22;3703;48.016;7.802;2022-07-23T00:06:20;26.00;99.90
7325;DHT22;3703;48.016;7.802;2022-07-23T00:09:10;25.90;99.90
7325;DHT22;3703;48.016;7.802;2022-07-23T00:11:57;25.70;99.90
7325;DHT22;3703;48.016;7.802;2022-07-23T00:14:45;25.50;99.90
7325;DHT22;3703;48.016;7.802;2022-07-23T00:17:33;25.40;99.90
7325;DHT22;3703;48.016;7.802;2022-07-23T00:20:21;25.30;99.90
7325;DHT22;3703;48.016;7.802;2022-07-23T00:23:08;25.10;99.90
7325;DHT22;3703;48.016;7.802;2022-07-23T00:25:57;25.00;99.90
7325;DHT22;3703;48.016;7.802;2022-07-23T00:28:45;25.00;99.90
7325;DHT22;3703;48.016;7.802;2022-07-23T00:31:33;24.90;99.90
7325;DHT22;3703;48.016;7.802;2022-07-23T00:34:20;24.50;99.90
7325;DHT22;3703;48.016;7.802;2022-07-23T00:37:08;24.40;99.90
7325;DHT22;3703;48.016;7.802;2022-07-23T00:39:55;24.30;99.90
7325;DHT22;3703;48.016;7.802;2022-07-23T00:42:45;24.40;99.90
7325;DHT22;3703;48.016;7.802;2022-07-23T00:45:32;24.50;99.90
7325;DHT22;3703;48.016;7.802;2022-07-23T00:48:20;24.50;99.90
7325;DHT22;3703;48.016;7.802;2022-07-23T00:51:08;24.50;99.90
7325;DHT22;3703;48.016;7.802;2022-07-23T00:53:55;24.50;99.90
7325;DHT22;3703;48.016;7.802;2022-07-23T00:56:44;24.50;99.90
7325;DHT22;3703;48.016;7.802;2022-07-23T00:59:34;24.50;99.90
7325;DHT22;3703;48.016;7.802;2022-07-23T01:02:22;24.50;99.90
7325;DHT22;3703;48.016;7.802;2022-07-23T01:05:10;24.10;99.90
7325;DHT22;3703;48.016;7.802;2022-07-23T01:07:58;23.80;99.90
7325;DHT22;3703;48.016;7.802;2022-07-23T01:10:46;24.00;99.90
7325;DHT22;3703;48.016;7.802;2022-07-23T01:13:35;24.00;99.90
7325;DHT22;3703;48.016;7.802;2022-07-23T01:16:24;24.10;99.90
7325;DHT22;3703;48.016;7.802;2022-07-23T01:19:12;24.10;99.90
7325;DHT22;3703;48.016;7.802;2022-07-23T01:22:02;24.00;99.90
7325;DHT22;3703;48.016;7.802;2022-07-23T01:24:53;24.10;99.90
7325;DHT22;3703;48.016;7.802;2022-07-23T01:27:40;24.00;99.90
7325;DHT22;3703;48.016;7.802;2022-07-23T01:30:29;24.00;99.90
7325;DHT22;3703;48.016;7.802;2022-07-23T01:33:16;23.70;99.90
7325;DHT22;3703;48.016;7.802;2022-07-23T01:36:05;23.50;99.90
7325;DHT22;3703;48.016;7.802;2022-07-23T01:38:53;23.30;99.90
7325;DHT22;3703;48.016;7.802;2022-07-23T01:41:42;23.30;99.90
7325;DHT22;3703;48.016;7.802;2022-07-23T01:44:29;23.30;99.90
7325;DHT22;3703;48.016;7.802;2022-07-23T01:47:17;23.60;99.90
7325;DHT22;3703;48.016;7.802;2022-07-23T01:50:06;23.50;99.90
7325;DHT22;3703;48.016;7.802;2022-07-23T01:52:54;23.70;99.90
7325;DHT22;3703;48.016;7.802;2022-07-23T01:55:42;23.80;99.90
7325;DHT22;3703;48.016;7.802;2022-07-23T01:58:31;23.80;99.90
7325;DHT22;3703;48.016;7.802;2022-07-23T02:01:19;23.80;99.90
7325;DHT22;3703;48.016;7.802;2022-07-23T02:04:07;23.70;99.90
7325;DHT22;3703;48.016;7.802;2022-07-23T02:06:54;23.60;99.90
7325;DHT22;3703;48.016;7.802;2022-07-23T02:09:42;23.60;99.90
7325;DHT22;3703;48.016;7.802;2022-07-23T02:12:30;23.60;99.90
7325;DHT22;3703;48.016;7.802;2022-07-23T02:15:19;23.60;99.90
7325;DHT22;3703;48.016;7.802;2022-07-23T02:18:06;23.50;99.90
7325;DHT22;3703;48.016;7.802;2022-07-23T02:20:54;23.30;99.90
7325;DHT22;3703;48.016;7.802;2022-07-23T02:23:42;23.30;99.90
7325;DHT22;3703;48.016;7.802;2022-07-23T02:26:30;23.30;99.90
7325;DHT22;3703;48.016;7.802;2022-07-23T02:29:20;23.20;99.90
7325;DHT22;3703;48.016;7.802;2022-07-23T02:32:09;23.20;99.90
7325;DHT22;3703;48.016;7.802;2022-07-23T02:34:57;23.00;99.90
7325;DHT22;3703;48.016;7.802;2022-07-23T02:37:45;22.70;99.90
7325;DHT22;3703;48.016;7.802;2022-07-23T02:40:33;22.80;99.90
7325;DHT22;3703;48.016;7.802;2022-07-23T02:43:20;22.90;99.90
7325;DHT22;3703;48.016;7.802;2022-07-23T02:46:08;22.90;99.90
7325;DHT22;3703;48.016;7.802;2022-07-23T02:48:57;22.80;99.90
7325;DHT22;3703;48.016;7.802;2022-07-23T02:51:44;22.60;99.90
7325;DHT22;3703;48.016;7.802;2022-07-23T02:54:32;22.40;99.90
7325;DHT22;3703;48.016;7.802;2022-07-23T02:57:20;22.40;99.90
7325;DHT22;3703;48.016;7.802;2022-07-23T03:00:08;22.50;99.90
7325;DHT22;3703;48.016;7.802;2022-07-23T03:02:56;22.60;99.90
7325;DHT22;3703;48.016;7.802;2022-07-23T03:05:46;22.70;99.90
7325;DHT22;3703;48.016;7.802;2022-07-23T03:08:33;22.70;99.90
7325;DHT22;3703;48.016;7.802;2022-07-23T03:11:21;22.60;99.90
7325;DHT22;3703;48.016;7.802;2022-07-23T03:14:09;22.40;99.90
7325;DHT22;3703;48.016;7.802;2022-07-23T03:16:59;22.30;99.90
7325;DHT22;3703;48.016;7.802;2022-07-23T03:19:46;22.00;99.90
7325;DHT22;3703;48.016;7.802;2022-07-23T03:22:35;22.10;99.90
7325;DHT22;3703;48.016;7.802;2022-07-23T03:25:23;22.10;99.90
7325;DHT22;3703;48.016;7.802;2022-07-23T03:28:11;22.20;99.90
7325;DHT22;3703;48.016;7.802;2022-07-23T03:30:58;22.40;99.90
7325;DHT22;3703;48.016;7.802;2022-07-23T03:33:46;22.70;99.90
7325;DHT22;3703;48.016;7.802;2022-07-23T03:36:35;22.70;99.90
7325;DHT22;3703;48.016;7.802;2022-07-23T03:39:24;22.80;99.90
7325;DHT22;3703;48.016;7.802;2022-07-23T03:42:12;22.60;99.90
7325;DHT22;3703;48.016;7.802;2022-07-23T03:44:59;22.40;99.90
7325;DHT22;3703;48.016;7.802;2022-07-23T03:47:47;22.00;99.90
7325;DHT22;3703;48.016;7.802;2022-07-23T03:50:35;21.60;99.90
7325;DHT22;3703;48.016;7.802;2022-07-23T03:53:23;21.60;99.90
7325;DHT22;3703;48.016;7.802;2022-07-23T03:56:12;21.80;99.90
7325;DHT22;3703;48.016;7.802;2022-07-23T03:59:00;22.00;99.90
7325;DHT22;3703;48.016;7.802;2022-07-23T04:01:48;22.10;99.90
7325;DHT22;3703;48.016;7.802;2022-07-23T04:04:35;22.30;99.90
7325;DHT22;3703;48.016;7.802;2022-07-23T04:07:23;22.20;99.90
7325;DHT22;3703;48.016;7.802;2022-07-23T04:10:10;22.10;99.90
7325;DHT22;3703;48.016;7.802;2022-07-23T04:12:59;22.10;99.90
7325;DHT22;3703;48.016;7.802;2022-07-23T04:15:47;21.70;99.90
7325;DHT22;3703;48.016;7.802;2022-07-23T04:18:36;21.50;99.90
7325;DHT22;3703;48.016;7.802;2022-07-23T04:21:24;21.70;99.90
7325;DHT22;3703;48.016;7.802;2022-07-23T04:24:11;21.60;99.90
7325;DHT22;3703;48.016;7.802;2022-07-23T04:26:59;21.40;99.90
7325;DHT22;3703;48.016;7.802;2022-07-23T04:29:48;21.30;99.90
7325;DHT22;3703;48.016;7.802;2022-07-23T04:32:36;21.50;99.90
7325;DHT22;3703;48.016;7.802;2022-07-23T04:35:24;21.80;99.90
7325;DHT22;3703;48.016;7.802;2022-07-23T04:38:12;22.10;99.90
7325;DHT22;3703;48.016;7.802;2022-07-23T04:41:00;22.10;99.90
7325;DHT22;3703;48.016;7.802;2022-07-23T04:43:48;22.30;99.90
7325;DHT22;3703;48.016;7.802;2022-07-23T04:46:37;22.30;99.90
7325;DHT22;3703;48.016;7.802;2022-07-23T04:49:25;22.20;99.90
7325;DHT22;3703;48.016;7.802;2022-07-23T04:52:12;22.10;99.90
7325;DHT22;3703;48.016;7.802;2022-07-23T04:55:01;22.20;99.90
7325;DHT22;3703;48.016;7.802;2022-07-23T04:57:49;22.30;99.90
7325;DHT22;3703;48.016;7.802;2022-07-23T05:00:36;22.10;99.90
7325;DHT22;3703;48.016;7.802;2022-07-23T05:03:25;21.70;99.90
7325;DHT22;3703;48.016;7.802;2022-07-23T05:06:13;21.60;99.90
7325;DHT22;3703;48.016;7.802;2022-07-23T05:09:01;21.60;99.90
7325;DHT22;3703;48.016;7.802;2022-07-23T05:11:48;21.80;99.90
7325;DHT22;3703;48.016;7.802;2022-07-23T05:14:36;21.80;99.90
7325;DHT22;3703;48.016;7.802;2022-07-23T05:17:24;22.00;99.90
7325;DHT22;3703;48.016;7.802;2022-07-23T05:20:13;22.10;99.90
7325;DHT22;3703;48.016;7.802;2022-07-23T05:23:01;22.20;99.90
7325;DHT22;3703;48.016;7.802;2022-07-23T05:25:49;22.10;99.90
7325;DHT22;3703;48.016;7.802;2022-07-23T05:28:37;22.20;99.90
7325;DHT22;3703;48.016;7.802;2022-07-23T05:31:24;22.20;99.90
7325;DHT22;3703;48.016;7.802;2022-07-23T05:34:12;22.20;99.90
7325;DHT22;3703;48.016;7.802;2022-07-23T05:37:01;22.20;99.90
7325;DHT22;3703;48.016;7.802;2022-07-23T05:39:49;22.20;99.90
7325;DHT22;3703;48.016;7.802;2022-07-23T05:42:38;22.30;99.90
7325;DHT22;3703;48.016;7.802;2022-07-23T05:45:26;22.30;99.90
7325;DHT22;3703;48.016;7.802;2022-07-23T05:48:14;22.40;99.90
7325;DHT22;3703;48.016;7.802;2022-07-23T05:51:01;22.50;99.90
7325;DHT22;3703;48.016;7.802;2022-07-23T05:53:54;22.40;99.90
7325;DHT22;3703;48.016;7.802;2022-07-23T05:56:42;22.20;99.90
7325;DHT22;3703;48.016;7.802;2022-07-23T05:59:29;22.30;99.90
7325;DHT22;3703;48.016;7.802;2022-07-23T06:02:17;22.20;99.90
7325;DHT22;3703;48.016;7.802;2022-07-23T06:05:06;22.10;99.90
7325;DHT22;3703;48.016;7.802;2022-07-23T06:07:54;22.10;99.90
7325;DHT22;3703;48.016;7.802;2022-07-23T06:10:43;22.00;99.90
7325;DHT22;3703;48.016;7.802;2022-07-23T06:13:31;21.80;99.90
7325;DHT22;3703;48.016;7.802;2022-07-23T06:16:18;21.90;99.90
7325;DHT22;3703;48.016;7.802;2022-07-23T06:19:06;21.90;99.90
7325;DHT22;3703;48.016;7.802;2022-07-23T06:21:54;21.90;99.90
7325;DHT22;3703;48.016;7.802;2022-07-23T06:24:41;22.00;99.90
7325;DHT22;3703;48.016;7.802;2022-07-23T06:27:31;21.80;99.90
7325;DHT22;3703;48.016;7.802;2022-07-23T06:30:18;21.80;99.90
7325;DHT22;3703;48.016;7.802;2022-07-23T06:33:06;21.80;99.90
7325;DHT22;3703;48.016;7.802;2022-07-23T06:35:54;21.90;99.90
7325;DHT22;3703;48.016;7.802;2022-07-23T06:38:42;22.00;99.90
7325;DHT22;3703;48.016;7.802;2022-07-23T06:41:29;21.90;99.90
7325;DHT22;3703;48.016;7.802;2022-07-23T06:44:19;21.90;99.90
7325;DHT22;3703;48.016;7.802;2022-07-23T06:47:06;21.80;99.90
7325;DHT22;3703;48.016;7.802;2022-07-23T06:49:54;21.80;99.90
7325;DHT22;3703;48.016;7.802;2022-07-23T06:52:42;22.00;99.90
7325;DHT22;3703;48.016;7.802;2022-07-23T06:55:29;22.00;99.90
7325;DHT22;3703;48.016;7.802;2022-07-23T06:58:17;22.00;99.90
7325;DHT22;3703;48.016;7.802;2022-07-23T07:01:07;22.10;99.90
7325;DHT22;3703;48.016;7.802;2022-07-23T07:03:55;22.20;99.90
7325;DHT22;3703;48.016;7.802;2022-07-23T07:06:43;22.40;99.90
7325;DHT22;3703;48.016;7.802;2022-07-23T07:09:31;22.60;99.90
7325;DHT22;3703;48.016;7.802;2022-07-23T07:12:18;22.80;99.90
7325;DHT22;3703;48.016;7.802;2022-07-23T07:15:06;23.00;99.90
7325;DHT22;3703;48.016;7.802;2022-07-23T07:17:56;23.10;99.90
7325;DHT22;3703;48.016;7.802;2022-07-23T07:20:44;23.00;99.90
7325;DHT22;3703;48.016;7.802;2022-07-23T07:23:31;22.90;99.90
7325;DHT22;3703;48.016;7.802;2022-07-23T07:26:22;23.10;99.90
7325;DHT22;3703;48.016;7.802;2022-07-23T07:29:10;23.10;99.90
7325;DHT22;3703;48.016;7.802;2022-07-23T07:31:58;23.10;99.90
7325;DHT22;3703;48.016;7.802;2022-07-23T07:34:47;23.20;99.90
7325;DHT22;3703;48.016;7.802;2022-07-23T07:37:35;23.20;99.90
7325;DHT22;3703;48.016;7.802;2022-07-23T07:40:23;23.20;99.90
7325;DHT22;3703;48.016;7.802;2022-07-23T07:43:10;23.30;99.90
7325;DHT22;3703;48.016;7.802;2022-07-23T07:45:58;23.40;99.90
7325;DHT22;3703;48.016;7.802;2022-07-23T07:48:46;23.60;99.90
7325;DHT22;3703;48.016;7.802;2022-07-23T07:51:35;23.70;99.90
7325;DHT22;3703;48.016;7.802;2022-07-23T07:54:23;23.60;99.90
7325;DHT22;3703;48.016;7.802;2022-07-23T07:57:10;23.90;99.90
7325;DHT22;3703;48.016;7.802;2022-07-23T07:59:58;24.00;99.90
7325;DHT22;3703;48.016;7.802;2022-07-23T08:02:48;23.80;99.90
7325;DHT22;3703;48.016;7.802;2022-07-23T08:05:37;23.90;99.90
7325;DHT22;3703;48.016;7.802;2022-07-23T08:08:27;23.80;99.90
7325;DHT22;3703;48.016;7.802;2022-07-23T08:11:14;23.70;99.90
7325;DHT22;3703;48.016;7.802;2022-07-23T08:14:02;23.70;99.90
7325;DHT22;3703;48.016;7.802;2022-07-23T08:16:50;23.90;99.90
7325;DHT22;3703;48.016;7.802;2022-07-23T08:19:38;23.90;99.90
7325;DHT22;3703;48.016;7.802;2022-07-23T08:22:41;23.90;99.90
7325;DHT22;3703;48.016;7.802;2022-07-23T08:25:35;24.20;99.90
7325;DHT22;3703;48.016;7.802;2022-07-23T08:28:23;24.60;99.90
7325;DHT22;3703;48.016;7.802;2022-07-23T08:31:11;24.90;99.90
7325;DHT22;3703;48.016;7.802;2022-07-23T08:33:59;24.50;99.90
7325;DHT22;3703;48.016;7.802;2022-07-23T08:36:46;24.50;99.90
7325;DHT22;3703;48.016;7.802;2022-07-23T08:39:34;24.60;99.90
7325;DHT22;3703;48.016;7.802;2022-07-23T08:42:24;24.70;99.90
7325;DHT22;3703;48.016;7.802;2022-07-23T08:45:13;24.70;99.90
7325;DHT22;3703;48.016;7.802;2022-07-23T08:48:06;24.50;99.90
7325;DHT22;3703;48.016;7.802;2022-07-23T08:50:56;24.70;99.90
7325;DHT22;3703;48.016;7.802;2022-07-23T08:53:45;24.90;99.90
7325;DHT22;3703;48.016;7.802;2022-07-23T08:56:35;25.10;99.90
7325;DHT22;3703;48.016;7.802;2022-07-23T08:59:24;25.00;99.90
7325;DHT22;3703;48.016;7.802;2022-07-23T09:02:12;25.20;99.90
7325;DHT22;3703;48.016;7.802;2022-07-23T09:05:00;25.40;99.90
7325;DHT22;3703;48.016;7.802;2022-07-23T09:08:08;25.70;99.90
7325;DHT22;3703;48.016;7.802;2022-07-23T09:10:59;25.60;99.90
7325;DHT22;3703;48.016;7.802;2022-07-23T09:13:48;25.50;99.90
7325;DHT22;3703;48.016;7.802;2022-07-23T09:16:39;25.50;99.90
7325;DHT22;3703;48.016;7.802;2022-07-23T09:19:27;25.80;99.90
7325;DHT22;3703;48.016;7.802;2022-07-23T09:22:22;26.00;99.90
7325;DHT22;3703;48.016;7.802;2022-07-23T09:25:14;26.20;99.90
7325;DHT22;3703;48.016;7.802;2022-07-23T09:28:02;26.40;99.90
7325;DHT22;3703;48.016;7.802;2022-07-23T09:30:53;26.40;99.90
7325;DHT22;3703;48.016;7.802;2022-07-23T09:33:42;26.80;99.90
7325;DHT22;3703;48.016;7.802;2022-07-23T09:36:29;26.90;99.90
7325;DHT22;3703;48.016;7.802;2022-07-23T09:39:25;26.80;99.90
7325;DHT22;3703;48.016;7.802;2022-07-23T09:42:16;26.70;99.90
7325;DHT22;3703;48.016;7.802;2022-07-23T09:45:10;26.90;99.90
7325;DHT22;3703;48.016;7.802;2022-07-23T09:48:10;27.10;99.90
7325;DHT22;3703;48.016;7.802;2022-07-23T09:51:03;27.30;99.90
7325;DHT22;3703;48.016;7.802;2022-07-23T09:53:51;27.30;99.90
7325;DHT22;3703;48.016;7.802;2022-07-23T09:56:39;27.00;99.90
7325;DHT22;3703;48.016;7.802;2022-07-23T09:59:29;26.90;99.90
7325;DHT22;3703;48.016;7.802;2022-07-23T10:02:19;26.80;99.90
7325;DHT22;3703;48.016;7.802;2022-07-23T10:05:08;26.80;99.90
7325;DHT22;3703;48.016;7.802;2022-07-23T10:07:58;27.00;99.90
7325;DHT22;3703;48.016;7.802;2022-07-23T10:10:50;26.70;99.90
7325;DHT22;3703;48.016;7.802;2022-07-23T10:13:39;26.70;99.90
7325;DHT22;3703;48.016;7.802;2022-07-23T10:16:49;26.80;99.90
7325;DHT22;3703;48.016;7.802;2022-07-23T10:19:37;27.30;99.90
7325;DHT22;3703;48.016;7.802;2022-07-23T10:22:29;27.50;99.90
7325;DHT22;3703;48.016;7.802;2022-07-23T10:25:24;27.40;99.90
7325;DHT22;3703;48.016;7.802;2022-07-23T10:31:45;27.50;99.90
7325;DHT22;3703;48.016;7.802;2022-07-23T10:34:44;27.40;99.90
7325;DHT22;3703;48.016;7.802;2022-07-23T10:37:38;27.30;99.90
7325;DHT22;3703;48.016;7.802;2022-07-23T10:40:31;27.60;99.90
7325;DHT22;3703;48.016;7.802;2022-07-23T10:43:18;27.70;99.90
7325;DHT22;3703;48.016;7.802;2022-07-23T10:46:30;27.70;99.90
7325;DHT22;3703;48.016;7.802;2022-07-23T10:49:26;28.30;99.90
7325;DHT22;3703;48.016;7.802;2022-07-23T10:52:20;28.20;99.90
7325;DHT22;3703;48.016;7.802;2022-07-23T10:55:44;27.40;99.90
7325;DHT22;3703;48.016;7.802;2022-07-23T10:58:49;27.40;99.90
7325;DHT22;3703;48.016;7.802;2022-07-23T11:01:38;27.80;99.90
7325;DHT22;3703;48.016;7.802;2022-07-23T11:04:50;28.20;99.90
7325;DHT22;3703;48.016;7.802;2022-07-23T11:11:12;28.00;99.90
7325;DHT22;3703;48.016;7.802;2022-07-23T11:14:00;28.50;99.90
7325;DHT22;3703;48.016;7.802;2022-07-23T11:16:47;28.50;99.90
7325;DHT22;3703;48.016;7.802;2022-07-23T11:23:01;28.90;99.90
7325;DHT22;3703;48.016;7.802;2022-07-23T11:25:50;29.40;99.90
7325;DHT22;3703;48.016;7.802;2022-07-23T11:28:39;29.30;99.90
7325;DHT22;3703;48.016;7.802;2022-07-23T11:31:27;28.80;99.90
7325;DHT22;3703;48.016;7.802;2022-07-23T11:34:31;28.30;99.90
7325;DHT22;3703;48.016;7.802;2022-07-23T11:37:35;28.30;99.90
7325;DHT22;3703;48.016;7.802;2022-07-23T11:40:25;28.50;99.90
7325;DHT22;3703;48.016;7.802;2022-07-23T11:43:13;28.60;99.90
7325;DHT22;3703;48.016;7.802;2022-07-23T11:46:03;28.20;99.90
7325;DHT22;3703;48.016;7.802;2022-07-23T11:49:01;28.20;99.90
7325;DHT22;3703;48.016;7.802;2022-07-23T11:52:03;28.80;99.90
7325;DHT22;3703;48.016;7.802;2022-07-23T11:54:53;29.30;99.90
7325;DHT22;3703;48.016;7.802;2022-07-23T11:57:42;29.60;99.90
7325;DHT22;3703;48.016;7.802;2022-07-23T12:00:31;29.50;99.90
7325;DHT22;3703;48.016;7.802;2022-07-23T12:03:20;29.00;99.90
7325;DHT22;3703;48.016;7.802;2022-07-23T12:06:08;28.60;99.90
7325;DHT22;3703;48.016;7.802;2022-07-23T12:08:55;28.50;99.90
7325;DHT22;3703;48.016;7.802;2022-07-23T12:11:57;28.70;99.90
7325;DHT22;3703;48.016;7.802;2022-07-23T12:14:49;28.30;99.90
7325;DHT22;3703;48.016;7.802;2022-07-23T12:17:39;28.40;99.90
7325;DHT22;3703;48.016;7.802;2022-07-23T12:20:31;28.10;99.90
7325;DHT22;3703;48.016;7.802;2022-07-23T12:23:22;28.20;99.90
7325;DHT22;3703;48.016;7.802;2022-07-23T12:26:10;28.30;99.90
7325;DHT22;3703;48.016;7.802;2022-07-23T12:28:58;28.90;99.90
7325;DHT22;3703;48.016;7.802;2022-07-23T12:31:46;29.50;99.90
7325;DHT22;3703;48.016;7.802;2022-07-23T12:34:33;29.70;99.90
7325;DHT22;3703;48.016;7.802;2022-07-23T12:37:32;29.50;99.90
7325;DHT22;3703;48.016;7.802;2022-07-23T12:40:27;29.90;99.90
7325;DHT22;3703;48.016;7.802;2022-07-23T12:43:20;30.20;99.90
7325;DHT22;3703;48.016;7.802;2022-07-23T12:46:10;30.40;99.90
7325;DHT22;3703;48.016;7.802;2022-07-23T12:49:00;30.80;99.90
7325;DHT22;3703;48.016;7.802;2022-07-23T12:51:48;31.30;99.90
7325;DHT22;3703;48.016;7.802;2022-07-23T12:54:37;31.50;99.90
7325;DHT22;3703;48.016;7.802;2022-07-23T12:57:45;31.50;99.90
7325;DHT22;3703;48.016;7.802;2022-07-23T13:00:55;31.90;99.90
7325;DHT22;3703;48.016;7.802;2022-07-23T13:03:55;31.70;99.90
7325;DHT22;3703;48.016;7.802;2022-07-23T13:06:46;31.40;99.90
7325;DHT22;3703;48.016;7.802;2022-07-23T13:09:37;31.50;99.90
7325;DHT22;3703;48.016;7.802;2022-07-23T13:12:24;31.90;99.90
7325;DHT22;3703;48.016;7.802;2022-07-23T13:15:12;32.10;99.90
7325;DHT22;3703;48.016;7.802;2022-07-23T13:18:00;32.30;99.90
7325;DHT22;3703;48.016;7.802;2022-07-23T13:20:49;31.50;99.90
7325;DHT22;3703;48.016;7.802;2022-07-23T13:23:37;30.60;99.90
7325;DHT22;3703;48.016;7.802;2022-07-23T13:26:27;30.10;99.90
7325;DHT22;3703;48.016;7.802;2022-07-23T13:29:15;29.90;99.90
7325;DHT22;3703;48.016;7.802;2022-07-23T13:32:03;30.50;99.90
7325;DHT22;3703;48.016;7.802;2022-07-23T13:34:51;31.10;99.90
7325;DHT22;3703;48.016;7.802;2022-07-23T13:37:39;31.40;99.90
7325;DHT22;3703;48.016;7.802;2022-07-23T13:40:26;31.80;99.90
7325;DHT22;3703;48.016;7.802;2022-07-23T13:43:17;32.10;99.90
7325;DHT22;3703;48.016;7.802;2022-07-23T13:46:06;32.50;99.90
7325;DHT22;3703;48.016;7.802;2022-07-23T13:48:54;32.90;99.90
7325;DHT22;3703;48.016;7.802;2022-07-23T13:51:42;33.20;99.90
7325;DHT22;3703;48.016;7.802;2022-07-23T13:54:29;33.60;99.90
7325;DHT22;3703;48.016;7.802;2022-07-23T13:57:17;33.50;99.90
7325;DHT22;3703;48.016;7.802;2022-07-23T14:00:08;33.70;99.90
7325;DHT22;3703;48.016;7.802;2022-07-23T14:02:57;33.40;99.90
7325;DHT22;3703;48.016;7.802;2022-07-23T14:05:45;33.30;99.90
7325;DHT22;3703;48.016;7.802;2022-07-23T14:08:33;33.40;99.90
7325;DHT22;3703;48.016;7.802;2022-07-23T14:11:20;33.30;99.90
7325;DHT22;3703;48.016;7.802;2022-07-23T14:14:08;33.50;99.90
7325;DHT22;3703;48.016;7.802;2022-07-23T14:16:57;33.70;99.90
7325;DHT22;3703;48.016;7.802;2022-07-23T14:19:45;33.40;99.90
7325;DHT22;3703;48.016;7.802;2022-07-23T14:22:33;32.90;99.90
7325;DHT22;3703;48.016;7.802;2022-07-23T14:25:21;32.40;99.90
7325;DHT22;3703;48.016;7.802;2022-07-23T14:28:09;32.10;99.90
7325;DHT22;3703;48.016;7.802;2022-07-23T14:30:57;31.80;99.90
7325;DHT22;3703;48.016;7.802;2022-07-23T14:33:46;31.80;99.90
7325;DHT22;3703;48.016;7.802;2022-07-23T14:36:35;31.50;99.90
7325;DHT22;3703;48.016;7.802;2022-07-23T14:39:22;31.60;99.90
7325;DHT22;3703;48.016;7.802;2022-07-23T14:42:11;31.80;99.90
7325;DHT22;3703;48.016;7.802;2022-07-23T14:44:59;31.90;99.90
7325;DHT22;3703;48.016;7.802;2022-07-23T14:47:47;31.90;99.90
7325;DHT22;3703;48.016;7.802;2022-07-23T14:50:36;31.80;99.90
7325;DHT22;3703;48.016;7.802;2022-07-23T14:53:23;31.80;99.90
7325;DHT22;3703;48.016;7.802;2022-07-23T14:56:11;31.90;99.90
7325;DHT22;3703;48.016;7.802;2022-07-23T14:58:59;31.90;99.90
7325;DHT22;3703;48.016;7.802;2022-07-23T15:01:47;31.90;99.90
7325;DHT22;3703;48.016;7.802;2022-07-23T15:04:35;31.70;99.90
7325;DHT22;3703;48.016;7.802;2022-07-23T15:07:24;31.60;99.90
7325;DHT22;3703;48.016;7.802;2022-07-23T15:10:12;31.50;99.90
7325;DHT22;3703;48.016;7.802;2022-07-23T15:13:00;31.50;99.90
7325;DHT22;3703;48.016;7.802;2022-07-23T15:15:48;31.20;99.90
7325;DHT22;3703;48.016;7.802;2022-07-23T15:18:36;31.10;99.90
7325;DHT22;3703;48.016;7.802;2022-07-23T15:21:24;31.10;99.90
7325;DHT22;3703;48.016;7.802;2022-07-23T15:24:16;31.00;99.90
7325;DHT22;3703;48.016;7.802;2022-07-23T15:27:04;31.10;99.90
7325;DHT22;3703;48.016;7.802;2022-07-23T15:29:51;31.30;99.90
7325;DHT22;3703;48.016;7.802;2022-07-23T15:32:39;31.60;99.90
7325;DHT22;3703;48.016;7.802;2022-07-23T15:35:27;31.70;99.90
7325;DHT22;3703;48.016;7.802;2022-07-23T15:38:15;31.80;99.90
7325;DHT22;3703;48.016;7.802;2022-07-23T15:41:04;32.00;99.90
7325;DHT22;3703;48.016;7.802;2022-07-23T15:43:51;32.30;99.90
7325;DHT22;3703;48.016;7.802;2022-07-23T15:46:40;32.40;99.90
7325;DHT22;3703;48.016;7.802;2022-07-23T15:49:28;32.40;99.90
7325;DHT22;3703;48.016;7.802;2022-07-23T15:52:16;32.30;99.90
7325;DHT22;3703;48.016;7.802;2022-07-23T15:55:04;32.30;99.90
7325;DHT22;3703;48.016;7.802;2022-07-23T15:57:54;32.40;99.90
7325;DHT22;3703;48.016;7.802;2022-07-23T16:00:42;32.20;99.90
7325;DHT22;3703;48.016;7.802;2022-07-23T16:03:30;31.90;99.90
7325;DHT22;3703;48.016;7.802;2022-07-23T16:06:17;31.90;99.90
7325;DHT22;3703;48.016;7.802;2022-07-23T16:09:05;31.90;99.90
7325;DHT22;3703;48.016;7.802;2022-07-23T16:11:53;32.00;99.90
7325;DHT22;3703;48.016;7.802;2022-07-23T16:14:42;32.00;99.90
7325;DHT22;3703;48.016;7.802;2022-07-23T16:17:30;31.90;99.90
7325;DHT22;3703;48.016;7.802;2022-07-23T16:20:18;31.90;99.90
7325;DHT22;3703;48.016;7.802;2022-07-23T16:23:06;31.90;99.90
7325;DHT22;3703;48.016;7.802;2022-07-23T16:25:54;32.00;99.90
7325;DHT22;3703;48.016;7.802;2022-07-23T16:28:41;32.10;99.90
7325;DHT22;3703;48.016;7.802;2022-07-23T16:31:30;32.00;99.90
7325;DHT22;3703;48.016;7.802;2022-07-23T16:34:18;32.00;99.90
7325;DHT22;3703;48.016;7.802;2022-07-23T16:37:08;31.90;99.90
7325;DHT22;3703;48.016;7.802;2022-07-23T16:39:55;31.80;99.90
7325;DHT22;3703;48.016;7.802;2022-07-23T16:42:44;31.50;99.90
7325;DHT22;3703;48.016;7.802;2022-07-23T16:45:32;31.40;99.90
7325;DHT22;3703;48.016;7.802;2022-07-23T16:48:21;31.40;99.90
7325;DHT22;3703;48.016;7.802;2022-07-23T16:51:08;31.40;99.90
7325;DHT22;3703;48.016;7.802;2022-07-23T16:53:56;31.40;99.90
7325;DHT22;3703;48.016;7.802;2022-07-23T16:56:44;31.30;99.90
7325;DHT22;3703;48.016;7.802;2022-07-23T16:59:31;31.20;99.90
7325;DHT22;3703;48.016;7.802;2022-07-23T17:02:19;30.80;99.90
7325;DHT22;3703;48.016;7.802;2022-07-23T17:05:08;30.60;99.90
7325;DHT22;3703;48.016;7.802;2022-07-23T17:07:56;30.40;99.90
7325;DHT22;3703;48.016;7.802;2022-07-23T17:10:45;30.20;99.90
7325;DHT22;3703;48.016;7.802;2022-07-23T17:13:32;30.10;99.90
7325;DHT22;3703;48.016;7.802;2022-07-23T17:16:20;30.00;99.90
7325;DHT22;3703;48.016;7.802;2022-07-23T17:19:08;30.00;99.90
7325;DHT22;3703;48.016;7.802;2022-07-23T17:21:57;29.70;99.90
7325;DHT22;3703;48.016;7.802;2022-07-23T17:24:44;29.60;99.90
7325;DHT22;3703;48.016;7.802;2022-07-23T17:27:32;29.40;99.90
7325;DHT22;3703;48.016;7.802;2022-07-23T17:30:20;29.30;99.90
7325;DHT22;3703;48.016;7.802;2022-07-23T17:33:07;29.30;99.90
7325;DHT22;3703;48.016;7.802;2022-07-23T17:35:55;29.20;99.90
7325;DHT22;3703;48.016;7.802;2022-07-23T17:38:44;29.30;99.90
7325;DHT22;3703;48.016;7.802;2022-07-23T17:41:32;29.20;99.90
7325;DHT22;3703;48.016;7.802;2022-07-23T17:44:20;29.00;99.90
7325;DHT22;3703;48.016;7.802;2022-07-23T17:47:07;29.00;99.90
7325;DHT22;3703;48.016;7.802;2022-07-23T17:49:55;29.00;99.90
7325;DHT22;3703;48.016;7.802;2022-07-23T17:52:44;29.00;99.90
7325;DHT22;3703;48.016;7.802;2022-07-23T17:55:36;29.10;99.90
7325;DHT22;3703;48.016;7.802;2022-07-23T17:58:24;29.10;99.90
7325;DHT22;3703;48.016;7.802;2022-07-23T18:01:13;29.00;99.90
7325;DHT22;3703;48.016;7.802;2022-07-23T18:04:00;28.90;99.90
7325;DHT22;3703;48.016;7.802;2022-07-23T18:06:48;28.80;99.90
7325;DHT22;3703;48.016;7.802;2022-07-23T18:09:37;28.80;99.90
7325;DHT22;3703;48.016;7.802;2022-07-23T18:12:26;28.80;99.90
7325;DHT22;3703;48.016;7.802;2022-07-23T18:15:14;28.70;99.90
7325;DHT22;3703;48.016;7.802;2022-07-23T18:18:02;28.70;99.90
7325;DHT22;3703;48.016;7.802;2022-07-23T18:20:50;28.60;99.90
7325;DHT22;3703;48.016;7.802;2022-07-23T18:23:38;28.60;99.90
7325;DHT22;3703;48.016;7.802;2022-07-23T18:26:26;28.40;99.90
7325;DHT22;3703;48.016;7.802;2022-07-23T18:29:15;28.20;99.90
7325;DHT22;3703;48.016;7.802;2022-07-23T18:32:03;28.20;99.90
7325;DHT22;3703;48.016;7.802;2022-07-23T18:34:51;28.20;99.90